sensor_id;sensor_type;location;lat;lon;timestamp;temperature;humidity
51559;DHT22;61650;48.882;2.092;2023-04-03T00:00:51;6.10;85.40
51559;DHT22;61650;48.882;2.092;2023-04-03T00:03:18;6.10;85.60
51559;DHT22;61650;48.882;2.092;2023-04-03T00:05:43;6.00;84.10
51559;DHT22;61650;48.882;2.092;2023-04-03T00:08:09;6.10;86.70
51559;DHT22;61650;48.882;2.092;2023-04-03T00:10:36;6.10;87.40
51559;DHT22;61650;48.882;2.092;2023-04-03T00:13:03;6.10;86.20
51559;DHT22;61650;48.882;2.092;2023-04-03T00:15:28;6.10;87.20
51559;DHT22;61650;48.882;2.092;2023-04-03T00:17:54;6.20;87.80
51559;DHT22;61650;48.882;2.092;2023-04-03T00:20:20;6.20;87.30
51559;DHT22;61650;48.882;2.092;2023-04-03T00:22:46;6.10;84.60
51559;DHT22;61650;48.882;2.092;2023-04-03T00:25:12;6.10;86.30
51559;DHT22;61650;48.882;2.092;2023-04-03T00:27:38;6.10;86.90
51559;DHT22;61650;48.882;2.092;2023-04-03T00:30:06;6.10;86.10
51559;DHT22;61650;48.882;2.092;2023-04-03T00:32:32;6.10;86.80
51559;DHT22;61650;48.882;2.092;2023-04-03T00:34:58;6.10;86.10
51559;DHT22;61650;48.882;2.092;2023-04-03T00:37:24;6.10;87.70
51559;DHT22;61650;48.882;2.092;2023-04-03T00:39:49;6.00;85.50
51559;DHT22;61650;48.882;2.092;2023-04-03T00:42:16;6.00;85.90
51559;DHT22;61650;48.882;2.092;2023-04-03T00:47:09;6.00;87.60
51559;DHT22;61650;48.882;2.092;2023-04-03T00:49:37;6.00;87.00
51559;DHT22;61650;48.882;2.092;2023-04-03T00:52:04;6.10;87.60
51559;DHT22;61650;48.882;2.092;2023-04-03T00:54:32;6.10;87.20
51559;DHT22;61650;48.882;2.092;2023-04-03T00:56:59;6.10;86.20
51559;DHT22;61650;48.882;2.092;2023-04-03T00:59:30;6.00;86.80
51559;DHT22;61650;48.882;2.092;2023-04-03T01:01:57;6.00;87.40
51559;DHT22;61650;48.882;2.092;2023-04-03T01:04:40;6.00;88.20
51559;DHT22;61650;48.882;2.092;2023-04-03T01:07:18;5.90;87.40
51559;DHT22;61650;48.882;2.092;2023-04-03T01:09:45;5.90;85.40
51559;DHT22;61650;48.882;2.092;2023-04-03T01:12:17;5.90;87.50
51559;DHT22;61650;48.882;2.092;2023-04-03T01:14:44;5.80;86.40
51559;DHT22;61650;48.882;2.092;2023-04-03T01:17:34;5.90;87.50
51559;DHT22;61650;48.882;2.092;2023-04-03T01:25:54;5.80;87.30
51559;DHT22;61650;48.882;2.092;2023-04-03T01:28:32;5.70;87.30
51559;DHT22;61650;48.882;2.092;2023-04-03T01:31:24;5.80;88.20
51559;DHT22;61650;48.882;2.092;2023-04-03T01:33:51;5.80;88.70
51559;DHT22;61650;48.882;2.092;2023-04-03T01:36:22;5.80;88.70
51559;DHT22;61650;48.882;2.092;2023-04-03T01:38:48;5.80;88.40
51559;DHT22;61650;48.882;2.092;2023-04-03T01:41:15;5.80;88.50
51559;DHT22;61650;48.882;2.092;2023-04-03T01:43:41;5.80;88.60
51559;DHT22;61650;48.882;2.092;2023-04-03T01:46:07;5.80;88.80
51559;DHT22;61650;48.882;2.092;2023-04-03T01:48:33;5.90;89.30
51559;DHT22;61650;48.882;2.092;2023-04-03T01:50:59;5.80;89.50
51559;DHT22;61650;48.882;2.092;2023-04-03T01:53:24;5.80;88.60
51559;DHT22;61650;48.882;2.092;2023-04-03T01:55:50;5.80;88.10
51559;DHT22;61650;48.882;2.092;2023-04-03T01:58:15;5.80;87.20
51559;DHT22;61650;48.882;2.092;2023-04-03T02:00:41;5.80;88.70
51559;DHT22;61650;48.882;2.092;2023-04-03T02:03:07;5.80;88.30
51559;DHT22;61650;48.882;2.092;2023-04-03T02:05:33;5.90;88.10
51559;DHT22;61650;48.882;2.092;2023-04-03T02:07:58;5.80;87.50
51559;DHT22;61650;48.882;2.092;2023-04-03T02:10:24;5.80;87.70
51559;DHT22;61650;48.882;2.092;2023-04-03T02:12:50;5.80;87.20
51559;DHT22;61650;48.882;2.092;2023-04-03T02:15:16;5.80;88.00
51559;DHT22;61650;48.882;2.092;2023-04-03T02:17:42;5.80;86.50
51559;DHT22;61650;48.882;2.092;2023-04-03T02:20:08;5.70;85.90
51559;DHT22;61650;48.882;2.092;2023-04-03T02:22:33;5.70;86.40
51559;DHT22;61650;48.882;2.092;2023-04-03T02:24:59;5.70;86.90
51559;DHT22;61650;48.882;2.092;2023-04-03T02:27:25;5.70;87.10
51559;DHT22;61650;48.882;2.092;2023-04-03T02:29:50;5.80;87.50
51559;DHT22;61650;48.882;2.092;2023-04-03T02:32:16;5.80;87.40
51559;DHT22;61650;48.882;2.092;2023-04-03T02:34:41;5.80;87.70
51559;DHT22;61650;48.882;2.092;2023-04-03T02:37:07;5.80;88.30
51559;DHT22;61650;48.882;2.092;2023-04-03T02:39:34;5.80;88.10
51559;DHT22;61650;48.882;2.092;2023-04-03T02:41:59;5.70;87.70
51559;DHT22;61650;48.882;2.092;2023-04-03T02:44:25;5.60;87.20
51559;DHT22;61650;48.882;2.092;2023-04-03T02:46:51;5.60;88.20
51559;DHT22;61650;48.882;2.092;2023-04-03T02:49:16;5.70;87.70
51559;DHT22;61650;48.882;2.092;2023-04-03T02:51:42;5.70;88.20
51559;DHT22;61650;48.882;2.092;2023-04-03T02:54:08;5.70;88.50
51559;DHT22;61650;48.882;2.092;2023-04-03T02:56:34;5.60;88.20
51559;DHT22;61650;48.882;2.092;2023-04-03T02:59:00;5.60;88.70
51559;DHT22;61650;48.882;2.092;2023-04-03T03:01:25;5.60;88.50
51559;DHT22;61650;48.882;2.092;2023-04-03T03:03:53;5.50;87.90
51559;DHT22;61650;48.882;2.092;2023-04-03T03:06:19;5.50;87.50
51559;DHT22;61650;48.882;2.092;2023-04-03T03:08:45;5.50;87.10
51559;DHT22;61650;48.882;2.092;2023-04-03T03:11:11;5.60;86.50
51559;DHT22;61650;48.882;2.092;2023-04-03T03:13:36;5.50;87.10
51559;DHT22;61650;48.882;2.092;2023-04-03T03:16:02;5.50;86.80
51559;DHT22;61650;48.882;2.092;2023-04-03T03:18:29;5.50;86.10
51559;DHT22;61650;48.882;2.092;2023-04-03T03:20:57;5.50;86.40
51559;DHT22;61650;48.882;2.092;2023-04-03T03:23:24;5.50;86.90
51559;DHT22;61650;48.882;2.092;2023-04-03T03:25:56;5.40;86.90
51559;DHT22;61650;48.882;2.092;2023-04-03T03:28:22;5.40;85.20
51559;DHT22;61650;48.882;2.092;2023-04-03T03:30:47;5.40;85.90
51559;DHT22;61650;48.882;2.092;2023-04-03T03:33:13;5.50;86.30
51559;DHT22;61650;48.882;2.092;2023-04-03T03:35:38;5.40;85.70
51559;DHT22;61650;48.882;2.092;2023-04-03T03:38:04;5.40;86.20
51559;DHT22;61650;48.882;2.092;2023-04-03T03:40:29;5.40;86.00
51559;DHT22;61650;48.882;2.092;2023-04-03T03:42:55;5.40;85.90
51559;DHT22;61650;48.882;2.092;2023-04-03T03:45:21;5.40;85.20
51559;DHT22;61650;48.882;2.092;2023-04-03T03:47:46;5.40;84.90
51559;DHT22;61650;48.882;2.092;2023-04-03T03:50:12;5.40;82.70
51559;DHT22;61650;48.882;2.092;2023-04-03T03:52:37;5.40;85.30
51559;DHT22;61650;48.882;2.092;2023-04-03T03:55:04;5.40;83.60
51559;DHT22;61650;48.882;2.092;2023-04-03T03:57:30;5.40;85.20
51559;DHT22;61650;48.882;2.092;2023-04-03T03:59:55;5.40;85.10
51559;DHT22;61650;48.882;2.092;2023-04-03T04:02:21;5.40;85.10
51559;DHT22;61650;48.882;2.092;2023-04-03T04:04:47;5.40;83.60
51559;DHT22;61650;48.882;2.092;2023-04-03T04:07:12;5.40;84.30
51559;DHT22;61650;48.882;2.092;2023-04-03T04:09:38;5.40;84.90
51559;DHT22;61650;48.882;2.092;2023-04-03T04:12:04;5.40;83.70
51559;DHT22;61650;48.882;2.092;2023-04-03T04:14:29;5.40;84.20
51559;DHT22;61650;48.882;2.092;2023-04-03T04:16:55;5.40;83.00
51559;DHT22;61650;48.882;2.092;2023-04-03T04:19:20;5.40;84.80
51559;DHT22;61650;48.882;2.092;2023-04-03T04:21:46;5.50;83.90
51559;DHT22;61650;48.882;2.092;2023-04-03T04:24:12;5.40;84.20
51559;DHT22;61650;48.882;2.092;2023-04-03T04:26:37;5.40;83.80
51559;DHT22;61650;48.882;2.092;2023-04-03T04:29:03;5.30;82.30
51559;DHT22;61650;48.882;2.092;2023-04-03T04:31:28;5.40;83.20
51559;DHT22;61650;48.882;2.092;2023-04-03T04:33:54;5.40;83.60
51559;DHT22;61650;48.882;2.092;2023-04-03T04:36:20;5.40;83.60
51559;DHT22;61650;48.882;2.092;2023-04-03T04:38:45;5.40;82.70
51559;DHT22;61650;48.882;2.092;2023-04-03T04:41:11;5.40;83.00
51559;DHT22;61650;48.882;2.092;2023-04-03T04:43:37;5.40;83.70
51559;DHT22;61650;48.882;2.092;2023-04-03T04:46:07;5.30;82.10
51559;DHT22;61650;48.882;2.092;2023-04-03T04:48:34;5.30;83.40
51559;DHT22;61650;48.882;2.092;2023-04-03T04:51:00;5.30;82.90
51559;DHT22;61650;48.882;2.092;2023-04-03T04:53:26;5.30;81.20
51559;DHT22;61650;48.882;2.092;2023-04-03T04:55:52;5.30;82.80
51559;DHT22;61650;48.882;2.092;2023-04-03T04:58:18;5.30;83.10
51559;DHT22;61650;48.882;2.092;2023-04-03T05:00:44;5.30;83.60
51559;DHT22;61650;48.882;2.092;2023-04-03T05:03:10;5.30;84.00
51559;DHT22;61650;48.882;2.092;2023-04-03T05:05:35;5.30;80.80
51559;DHT22;61650;48.882;2.092;2023-04-03T05:08:01;5.30;81.60
51559;DHT22;61650;48.882;2.092;2023-04-03T05:10:28;5.30;79.80
51559;DHT22;61650;48.882;2.092;2023-04-03T05:12:53;5.20;78.20
51559;DHT22;61650;48.882;2.092;2023-04-03T05:15:19;5.20;81.30
51559;DHT22;61650;48.882;2.092;2023-04-03T05:17:45;5.20;79.60
51559;DHT22;61650;48.882;2.092;2023-04-03T05:20:11;5.20;79.40
51559;DHT22;61650;48.882;2.092;2023-04-03T05:22:37;5.10;75.60
51559;DHT22;61650;48.882;2.092;2023-04-03T05:25:03;5.10;77.80
51559;DHT22;61650;48.882;2.092;2023-04-03T05:27:29;5.00;78.30
51559;DHT22;61650;48.882;2.092;2023-04-03T05:29:55;5.10;76.50
51559;DHT22;61650;48.882;2.092;2023-04-03T05:32:21;5.10;78.50
51559;DHT22;61650;48.882;2.092;2023-04-03T05:34:47;5.10;80.30
51559;DHT22;61650;48.882;2.092;2023-04-03T05:37:13;5.10;80.80
51559;DHT22;61650;48.882;2.092;2023-04-03T05:39:38;5.00;82.20
51559;DHT22;61650;48.882;2.092;2023-04-03T05:42:06;5.00;80.20
51559;DHT22;61650;48.882;2.092;2023-04-03T05:44:32;5.00;79.10
51559;DHT22;61650;48.882;2.092;2023-04-03T05:46:57;5.00;79.90
51559;DHT22;61650;48.882;2.092;2023-04-03T05:49:23;5.00;79.50
51559;DHT22;61650;48.882;2.092;2023-04-03T05:51:48;5.00;79.10
51559;DHT22;61650;48.882;2.092;2023-04-03T05:54:23;5.00;79.70
51559;DHT22;61650;48.882;2.092;2023-04-03T05:56:50;5.00;80.50
51559;DHT22;61650;48.882;2.092;2023-04-03T05:59:16;5.00;79.00
51559;DHT22;61650;48.882;2.092;2023-04-03T06:01:42;5.00;79.10
51559;DHT22;61650;48.882;2.092;2023-04-03T06:04:07;4.90;78.60
51559;DHT22;61650;48.882;2.092;2023-04-03T06:06:55;4.90;78.40
51559;DHT22;61650;48.882;2.092;2023-04-03T06:09:23;5.00;79.40
51559;DHT22;61650;48.882;2.092;2023-04-03T06:11:48;5.00;77.60
51559;DHT22;61650;48.882;2.092;2023-04-03T06:14:14;5.00;79.80
51559;DHT22;61650;48.882;2.092;2023-04-03T06:16:40;5.00;79.00
51559;DHT22;61650;48.882;2.092;2023-04-03T06:19:07;5.00;79.40
51559;DHT22;61650;48.882;2.092;2023-04-03T06:21:33;5.00;77.20
51559;DHT22;61650;48.882;2.092;2023-04-03T06:23:58;5.00;76.30
51559;DHT22;61650;48.882;2.092;2023-04-03T06:26:24;5.00;74.70
51559;DHT22;61650;48.882;2.092;2023-04-03T06:28:50;5.00;78.40
51559;DHT22;61650;48.882;2.092;2023-04-03T06:31:16;5.00;79.20
51559;DHT22;61650;48.882;2.092;2023-04-03T06:33:42;5.10;78.10
51559;DHT22;61650;48.882;2.092;2023-04-03T06:36:09;5.10;77.20
51559;DHT22;61650;48.882;2.092;2023-04-03T06:38:35;5.10;76.30
51559;DHT22;61650;48.882;2.092;2023-04-03T06:41:01;5.20;76.00
51559;DHT22;61650;48.882;2.092;2023-04-03T06:43:26;5.10;73.70
51559;DHT22;61650;48.882;2.092;2023-04-03T06:45:52;5.20;75.90
51559;DHT22;61650;48.882;2.092;2023-04-03T06:48:18;5.20;75.60
51559;DHT22;61650;48.882;2.092;2023-04-03T06:50:43;5.10;74.30
51559;DHT22;61650;48.882;2.092;2023-04-03T06:53:09;5.20;76.50
51559;DHT22;61650;48.882;2.092;2023-04-03T06:55:35;5.20;73.30
51559;DHT22;61650;48.882;2.092;2023-04-03T06:58:01;5.20;71.60
51559;DHT22;61650;48.882;2.092;2023-04-03T07:00:27;5.20;75.60
51559;DHT22;61650;48.882;2.092;2023-04-03T07:02:53;5.10;74.30
51559;DHT22;61650;48.882;2.092;2023-04-03T07:05:19;5.20;73.30
51559;DHT22;61650;48.882;2.092;2023-04-03T07:07:45;5.20;75.30
51559;DHT22;61650;48.882;2.092;2023-04-03T07:10:11;5.30;74.00
51559;DHT22;61650;48.882;2.092;2023-04-03T07:12:37;5.30;74.40
51559;DHT22;61650;48.882;2.092;2023-04-03T07:15:04;5.30;74.90
51559;DHT22;61650;48.882;2.092;2023-04-03T07:17:30;5.30;75.30
51559;DHT22;61650;48.882;2.092;2023-04-03T07:19:56;5.40;75.90
51559;DHT22;61650;48.882;2.092;2023-04-03T07:22:22;5.40;72.50
51559;DHT22;61650;48.882;2.092;2023-04-03T07:24:47;5.40;74.20
51559;DHT22;61650;48.882;2.092;2023-04-03T07:27:13;5.50;72.70
51559;DHT22;61650;48.882;2.092;2023-04-03T07:29:39;5.50;74.60
51559;DHT22;61650;48.882;2.092;2023-04-03T07:32:05;5.60;72.70
51559;DHT22;61650;48.882;2.092;2023-04-03T07:34:32;5.50;70.50
51559;DHT22;61650;48.882;2.092;2023-04-03T07:36:58;5.50;68.90
51559;DHT22;61650;48.882;2.092;2023-04-03T07:39:24;5.50;73.30
51559;DHT22;61650;48.882;2.092;2023-04-03T07:41:50;5.50;74.30
51559;DHT22;61650;48.882;2.092;2023-04-03T07:44:16;5.50;71.40
51559;DHT22;61650;48.882;2.092;2023-04-03T07:46:41;5.60;71.50
51559;DHT22;61650;48.882;2.092;2023-04-03T07:49:07;5.80;74.10
51559;DHT22;61650;48.882;2.092;2023-04-03T07:51:33;5.80;73.60
51559;DHT22;61650;48.882;2.092;2023-04-03T07:53:59;5.80;74.00
51559;DHT22;61650;48.882;2.092;2023-04-03T07:56:24;5.90;72.30
51559;DHT22;61650;48.882;2.092;2023-04-03T07:58:50;5.90;73.60
51559;DHT22;61650;48.882;2.092;2023-04-03T08:01:16;5.90;73.80
51559;DHT22;61650;48.882;2.092;2023-04-03T08:03:42;5.90;71.60
51559;DHT22;61650;48.882;2.092;2023-04-03T08:06:08;6.00;71.70
51559;DHT22;61650;48.882;2.092;2023-04-03T08:08:34;6.10;70.40
51559;DHT22;61650;48.882;2.092;2023-04-03T08:11:01;6.20;73.10
51559;DHT22;61650;48.882;2.092;2023-04-03T08:13:28;6.20;70.90
51559;DHT22;61650;48.882;2.092;2023-04-03T08:15:54;6.20;73.20
51559;DHT22;61650;48.882;2.092;2023-04-03T08:18:21;6.30;73.10
51559;DHT22;61650;48.882;2.092;2023-04-03T08:20:50;6.30;71.30
51559;DHT22;61650;48.882;2.092;2023-04-03T08:23:15;6.40;73.10
51559;DHT22;61650;48.882;2.092;2023-04-03T08:25:42;6.50;72.50
51559;DHT22;61650;48.882;2.092;2023-04-03T08:28:09;6.50;70.00
51559;DHT22;61650;48.882;2.092;2023-04-03T08:30:35;6.50;67.80
51559;DHT22;61650;48.882;2.092;2023-04-03T08:33:02;6.60;69.70
51559;DHT22;61650;48.882;2.092;2023-04-03T08:35:28;6.50;67.40
51559;DHT22;61650;48.882;2.092;2023-04-03T08:37:53;6.60;69.10
51559;DHT22;61650;48.882;2.092;2023-04-03T08:40:19;6.60;66.50
51559;DHT22;61650;48.882;2.092;2023-04-03T08:48:05;6.80;70.00
51559;DHT22;61650;48.882;2.092;2023-04-03T08:50:41;6.80;71.10
51559;DHT22;61650;48.882;2.092;2023-04-03T08:53:15;6.80;70.60
51559;DHT22;61650;48.882;2.092;2023-04-03T08:55:51;6.80;71.10
51559;DHT22;61650;48.882;2.092;2023-04-03T08:58:24;6.90;70.20
51559;DHT22;61650;48.882;2.092;2023-04-03T09:01:00;7.10;69.80
51559;DHT22;61650;48.882;2.092;2023-04-03T09:03:30;7.30;67.30
51559;DHT22;61650;48.882;2.092;2023-04-03T09:06:14;7.20;63.30
51559;DHT22;61650;48.882;2.092;2023-04-03T09:09:02;7.00;65.00
51559;DHT22;61650;48.882;2.092;2023-04-03T09:16:59;6.90;67.10
51559;DHT22;61650;48.882;2.092;2023-04-03T09:24:31;7.10;68.80
51559;DHT22;61650;48.882;2.092;2023-04-03T09:27:01;7.50;67.70
51559;DHT22;61650;48.882;2.092;2023-04-03T09:29:29;7.70;61.50
51559;DHT22;61650;48.882;2.092;2023-04-03T09:32:01;7.60;60.10
51559;DHT22;61650;48.882;2.092;2023-04-03T09:34:36;7.50;60.80
51559;DHT22;61650;48.882;2.092;2023-04-03T09:37:04;7.60;66.00
51559;DHT22;61650;48.882;2.092;2023-04-03T09:39:50;7.80;66.70
51559;DHT22;61650;48.882;2.092;2023-04-03T09:42:25;8.00;66.20
51559;DHT22;61650;48.882;2.092;2023-04-03T09:44:58;8.00;64.60
51559;DHT22;61650;48.882;2.092;2023-04-03T09:47:34;8.20;65.80
51559;DHT22;61650;48.882;2.092;2023-04-03T09:52:39;8.10;63.40
51559;DHT22;61650;48.882;2.092;2023-04-03T09:55:08;7.90;63.30
51559;DHT22;61650;48.882;2.092;2023-04-03T09:57:38;7.90;65.20
51559;DHT22;61650;48.882;2.092;2023-04-03T10:00:04;8.10;64.70
51559;DHT22;61650;48.882;2.092;2023-04-03T10:02:35;8.30;64.10
51559;DHT22;61650;48.882;2.092;2023-04-03T10:05:02;8.50;64.00
51559;DHT22;61650;48.882;2.092;2023-04-03T10:07:36;8.70;59.20
51559;DHT22;61650;48.882;2.092;2023-04-03T10:12:40;8.70;61.80
51559;DHT22;61650;48.882;2.092;2023-04-03T10:15:14;8.70;60.50
51559;DHT22;61650;48.882;2.092;2023-04-03T10:18:02;8.80;63.60
51559;DHT22;61650;48.882;2.092;2023-04-03T10:23:24;8.90;59.90
51559;DHT22;61650;48.882;2.092;2023-04-03T10:31:50;8.60;61.00
51559;DHT22;61650;48.882;2.092;2023-04-03T10:34:24;8.50;63.20
51559;DHT22;61650;48.882;2.092;2023-04-03T10:37:01;8.40;58.40
51559;DHT22;61650;48.882;2.092;2023-04-03T10:53:24;8.60;59.00
51559;DHT22;61650;48.882;2.092;2023-04-03T11:01:40;8.70;58.20
51559;DHT22;61650;48.882;2.092;2023-04-03T11:04:09;8.70;59.20
51559;DHT22;61650;48.882;2.092;2023-04-03T11:06:43;8.60;58.60
51559;DHT22;61650;48.882;2.092;2023-04-03T11:11:46;8.90;54.80
51559;DHT22;61650;48.882;2.092;2023-04-03T11:14:33;9.00;57.70
51559;DHT22;61650;48.882;2.092;2023-04-03T11:22:30;9.10;55.60
51559;DHT22;61650;48.882;2.092;2023-04-03T11:25:20;9.40;52.00
51559;DHT22;61650;48.882;2.092;2023-04-03T11:27:59;9.70;55.60
51559;DHT22;61650;48.882;2.092;2023-04-03T11:36:02;9.90;54.10
51559;DHT22;61650;48.882;2.092;2023-04-03T11:38:42;9.80;51.30
51559;DHT22;61650;48.882;2.092;2023-04-03T11:41:09;9.70;50.50
51559;DHT22;61650;48.882;2.092;2023-04-03T11:43:41;9.70;52.20
51559;DHT22;61650;48.882;2.092;2023-04-03T11:46:08;9.80;54.50
51559;DHT22;61650;48.882;2.092;2023-04-03T11:53:46;11.40;48.60
51559;DHT22;61650;48.882;2.092;2023-04-03T11:59:16;12.80;43.50
51559;DHT22;61650;48.882;2.092;2023-04-03T12:01:52;12.90;47.00
51559;DHT22;61650;48.882;2.092;2023-04-03T12:04:20;13.10;47.40
51559;DHT22;61650;48.882;2.092;2023-04-03T12:12:00;13.60;42.30
51559;DHT22;61650;48.882;2.092;2023-04-03T12:14:27;13.80;45.30
51559;DHT22;61650;48.882;2.092;2023-04-03T12:16:55;14.40;43.80
51559;DHT22;61650;48.882;2.092;2023-04-03T12:19:39;14.80;44.10
51559;DHT22;61650;48.882;2.092;2023-04-03T12:22:14;14.20;41.60
51559;DHT22;61650;48.882;2.092;2023-04-03T12:24:45;13.50;42.90
51559;DHT22;61650;48.882;2.092;2023-04-03T12:27:30;13.10;42.00
51559;DHT22;61650;48.882;2.092;2023-04-03T12:32:47;13.20;44.70
51559;DHT22;61650;48.882;2.092;2023-04-03T12:48:27;17.30;40.40
51559;DHT22;61650;48.882;2.092;2023-04-03T12:50:54;17.30;39.80
51559;DHT22;61650;48.882;2.092;2023-04-03T12:53:34;17.80;38.90
51559;DHT22;61650;48.882;2.092;2023-04-03T12:58:46;20.10;35.70
51559;DHT22;61650;48.882;2.092;2023-04-03T13:01:14;20.50;35.40
51559;DHT22;61650;48.882;2.092;2023-04-03T13:03:45;20.60;35.70
51559;DHT22;61650;48.882;2.092;2023-04-03T13:06:32;18.80;37.10
51559;DHT22;61650;48.882;2.092;2023-04-03T13:09:00;18.50;39.60
51559;DHT22;61650;48.882;2.092;2023-04-03T13:11:40;19.90;37.20
51559;DHT22;61650;48.882;2.092;2023-04-03T13:14:19;19.90;30.70
51559;DHT22;61650;48.882;2.092;2023-04-03T13:19:26;20.80;34.10
51559;DHT22;61650;48.882;2.092;2023-04-03T13:24:23;21.60;29.50
51559;DHT22;61650;48.882;2.092;2023-04-03T13:26:50;21.20;33.30
51559;DHT22;61650;48.882;2.092;2023-04-03T13:29:28;21.20;32.30
51559;DHT22;61650;48.882;2.092;2023-04-03T13:31:55;20.70;30.50
51559;DHT22;61650;48.882;2.092;2023-04-03T13:34:22;19.60;34.00
51559;DHT22;61650;48.882;2.092;2023-04-03T13:41:47;17.20;37.80
51559;DHT22;61650;48.882;2.092;2023-04-03T13:49:39;16.10;36.80
51559;DHT22;61650;48.882;2.092;2023-04-03T13:52:32;17.20;39.00
51559;DHT22;61650;48.882;2.092;2023-04-03T13:55:25;18.50;35.20
51559;DHT22;61650;48.882;2.092;2023-04-03T14:01:14;18.70;34.70
51559;DHT22;61650;48.882;2.092;2023-04-03T14:04:00;17.90;32.90
51559;DHT22;61650;48.882;2.092;2023-04-03T14:06:27;17.30;33.40
51559;DHT22;61650;48.882;2.092;2023-04-03T14:08:53;17.30;35.60
51559;DHT22;61650;48.882;2.092;2023-04-03T14:11:24;17.50;35.70
51559;DHT22;61650;48.882;2.092;2023-04-03T14:13:53;16.80;35.30
51559;DHT22;61650;48.882;2.092;2023-04-03T14:16:21;17.10;34.90
51559;DHT22;61650;48.882;2.092;2023-04-03T14:18:48;17.20;37.30
51559;DHT22;61650;48.882;2.092;2023-04-03T14:21:17;18.00;35.50
51559;DHT22;61650;48.882;2.092;2023-04-03T14:23:44;17.40;35.30
51559;DHT22;61650;48.882;2.092;2023-04-03T14:26:23;15.90;37.60
51559;DHT22;61650;48.882;2.092;2023-04-03T14:28:52;15.50;37.90
51559;DHT22;61650;48.882;2.092;2023-04-03T14:31:19;15.10;39.00
51559;DHT22;61650;48.882;2.092;2023-04-03T14:33:46;14.80;38.80
51559;DHT22;61650;48.882;2.092;2023-04-03T14:36:30;14.70;39.20
51559;DHT22;61650;48.882;2.092;2023-04-03T14:38:59;14.50;39.50
51559;DHT22;61650;48.882;2.092;2023-04-03T14:41:26;14.30;39.50
51559;DHT22;61650;48.882;2.092;2023-04-03T14:43:52;14.30;39.90
51559;DHT22;61650;48.882;2.092;2023-04-03T14:46:23;14.00;38.80
51559;DHT22;61650;48.882;2.092;2023-04-03T14:48:49;13.80;39.00
51559;DHT22;61650;48.882;2.092;2023-04-03T14:51:15;13.50;40.40
51559;DHT22;61650;48.882;2.092;2023-04-03T14:53:43;13.40;40.50
51559;DHT22;61650;48.882;2.092;2023-04-03T14:56:19;13.20;40.70
51559;DHT22;61650;48.882;2.092;2023-04-03T14:58:47;13.30;41.10
51559;DHT22;61650;48.882;2.092;2023-04-03T15:01:17;13.10;40.60
51559;DHT22;61650;48.882;2.092;2023-04-03T15:03:42;13.10;40.50
51559;DHT22;61650;48.882;2.092;2023-04-03T15:06:12;13.10;41.20
51559;DHT22;61650;48.882;2.092;2023-04-03T15:08:38;13.00;41.50
51559;DHT22;61650;48.882;2.092;2023-04-03T15:11:06;13.00;41.60
51559;DHT22;61650;48.882;2.092;2023-04-03T15:13:32;13.10;41.80
51559;DHT22;61650;48.882;2.092;2023-04-03T15:15:58;13.10;41.60
51559;DHT22;61650;48.882;2.092;2023-04-03T15:18:26;12.90;41.60
51559;DHT22;61650;48.882;2.092;2023-04-03T15:20:53;12.90;42.00
51559;DHT22;61650;48.882;2.092;2023-04-03T15:23:21;12.80;41.60
51559;DHT22;61650;48.882;2.092;2023-04-03T15:25:52;12.70;42.00
51559;DHT22;61650;48.882;2.092;2023-04-03T15:28:37;12.70;42.30
51559;DHT22;61650;48.882;2.092;2023-04-03T15:31:04;12.70;42.40
51559;DHT22;61650;48.882;2.092;2023-04-03T15:33:31;12.60;42.60
51559;DHT22;61650;48.882;2.092;2023-04-03T15:35:57;12.70;42.70
51559;DHT22;61650;48.882;2.092;2023-04-03T15:38:22;12.70;42.70
51559;DHT22;61650;48.882;2.092;2023-04-03T15:40:48;12.70;42.90
51559;DHT22;61650;48.882;2.092;2023-04-03T15:43:14;12.60;41.40
51559;DHT22;61650;48.882;2.092;2023-04-03T15:45:40;12.50;41.30
51559;DHT22;61650;48.882;2.092;2023-04-03T15:48:06;12.50;42.60
51559;DHT22;61650;48.882;2.092;2023-04-03T15:50:33;12.50;42.30
51559;DHT22;61650;48.882;2.092;2023-04-03T15:53:00;12.30;42.10
51559;DHT22;61650;48.882;2.092;2023-04-03T15:55:30;12.20;43.10
51559;DHT22;61650;48.882;2.092;2023-04-03T15:57:56;12.20;43.50
51559;DHT22;61650;48.882;2.092;2023-04-03T16:00:23;12.20;43.60
51559;DHT22;61650;48.882;2.092;2023-04-03T16:02:55;12.20;43.60
51559;DHT22;61650;48.882;2.092;2023-04-03T16:05:22;12.20;43.80
51559;DHT22;61650;48.882;2.092;2023-04-03T16:07:48;12.20;43.70
51559;DHT22;61650;48.882;2.092;2023-04-03T16:10:16;12.20;43.90
51559;DHT22;61650;48.882;2.092;2023-04-03T16:12:42;12.20;44.20
51559;DHT22;61650;48.882;2.092;2023-04-03T16:15:08;12.20;44.50
51559;DHT22;61650;48.882;2.092;2023-04-03T16:17:35;12.20;44.30
51559;DHT22;61650;48.882;2.092;2023-04-03T16:20:01;12.00;44.10
51559;DHT22;61650;48.882;2.092;2023-04-03T16:22:29;11.90;44.50
51559;DHT22;61650;48.882;2.092;2023-04-03T16:24:55;11.90;44.60
51559;DHT22;61650;48.882;2.092;2023-04-03T16:27:22;11.90;44.50
51559;DHT22;61650;48.882;2.092;2023-04-03T16:29:55;11.90;44.60
51559;DHT22;61650;48.882;2.092;2023-04-03T16:32:22;11.80;44.50
51559;DHT22;61650;48.882;2.092;2023-04-03T16:34:48;11.80;44.90
51559;DHT22;61650;48.882;2.092;2023-04-03T16:37:15;11.80;44.90
51559;DHT22;61650;48.882;2.092;2023-04-03T16:39:41;11.80;45.00
51559;DHT22;61650;48.882;2.092;2023-04-03T16:42:07;11.80;44.70
51559;DHT22;61650;48.882;2.092;2023-04-03T16:44:34;11.70;44.80
51559;DHT22;61650;48.882;2.092;2023-04-03T16:47:00;11.70;44.90
51559;DHT22;61650;48.882;2.092;2023-04-03T16:49:26;11.70;45.20
51559;DHT22;61650;48.882;2.092;2023-04-03T16:51:57;11.60;44.80
51559;DHT22;61650;48.882;2.092;2023-04-03T16:54:23;11.60;45.30
51559;DHT22;61650;48.882;2.092;2023-04-03T16:56:48;11.60;45.10
51559;DHT22;61650;48.882;2.092;2023-04-03T16:59:14;11.60;45.10
51559;DHT22;61650;48.882;2.092;2023-04-03T17:01:40;11.50;45.00
51559;DHT22;61650;48.882;2.092;2023-04-03T17:04:05;11.50;45.30
51559;DHT22;61650;48.882;2.092;2023-04-03T17:06:31;11.40;45.70
51559;DHT22;61650;48.882;2.092;2023-04-03T17:08:56;11.40;45.80
51559;DHT22;61650;48.882;2.092;2023-04-03T17:11:22;11.40;46.00
51559;DHT22;61650;48.882;2.092;2023-04-03T17:13:48;11.30;45.70
51559;DHT22;61650;48.882;2.092;2023-04-03T17:16:15;11.30;45.90
51559;DHT22;61650;48.882;2.092;2023-04-03T17:18:41;11.20;45.90
51559;DHT22;61650;48.882;2.092;2023-04-03T17:21:07;11.20;46.00
51559;DHT22;61650;48.882;2.092;2023-04-03T17:23:35;11.10;46.10
51559;DHT22;61650;48.882;2.092;2023-04-03T17:26:02;11.10;46.20
51559;DHT22;61650;48.882;2.092;2023-04-03T17:28:28;11.00;46.10
51559;DHT22;61650;48.882;2.092;2023-04-03T17:30:55;11.10;46.20
51559;DHT22;61650;48.882;2.092;2023-04-03T17:33:21;11.00;46.10
51559;DHT22;61650;48.882;2.092;2023-04-03T17:35:46;11.00;46.10
51559;DHT22;61650;48.882;2.092;2023-04-03T17:38:12;10.90;46.50
51559;DHT22;61650;48.882;2.092;2023-04-03T17:40:38;10.90;46.50
51559;DHT22;61650;48.882;2.092;2023-04-03T17:43:04;10.80;46.40
51559;DHT22;61650;48.882;2.092;2023-04-03T17:45:29;10.80;46.90
51559;DHT22;61650;48.882;2.092;2023-04-03T17:47:55;10.70;46.80